sensor_id;sensor_type;location;lat;lon;timestamp;temperature;humidity
21216;DHT22;10765;50.954;5.322;2024-02-21T00:00:55;9.40;99.90
21216;DHT22;10765;50.954;5.322;2024-02-21T00:03:21;9.50;99.90
21216;DHT22;10765;50.954;5.322;2024-02-21T00:05:48;9.40;99.90
21216;DHT22;10765;50.954;5.322;2024-02-21T00:08:15;9.50;99.90
21216;DHT22;10765;50.954;5.322;2024-02-21T00:10:42;9.40;99.90
21216;DHT22;10765;50.954;5.322;2024-02-21T00:13:10;9.40;99.90
21216;DHT22;10765;50.954;5.322;2024-02-21T00:15:37;9.40;1.00
21216;DHT22;10765;50.954;5.322;2024-02-21T00:18:04;9.40;99.90
21216;DHT22;10765;50.954;5.322;2024-02-21T00:20:31;9.40;99.90
21216;DHT22;10765;50.954;5.322;2024-02-21T00:22:58;9.40;99.90
21216;DHT22;10765;50.954;5.322;2024-02-21T00:25:25;9.40;99.90
21216;DHT22;10765;50.954;5.322;2024-02-21T00:27:52;9.40;99.90
21216;DHT22;10765;50.954;5.322;2024-02-21T00:30:20;9.40;99.90
21216;DHT22;10765;50.954;5.322;2024-02-21T00:32:47;9.40;99.90
21216;DHT22;10765;50.954;5.322;2024-02-21T00:35:14;9.30;99.90
21216;DHT22;10765;50.954;5.322;2024-02-21T00:37:41;9.30;99.90
21216;DHT22;10765;50.954;5.322;2024-02-21T00:40:09;9.40;99.90
21216;DHT22;10765;50.954;5.322;2024-02-21T00:42:36;9.40;1.00
21216;DHT22;10765;50.954;5.322;2024-02-21T00:45:03;9.40;99.90
21216;DHT22;10765;50.954;5.322;2024-02-21T00:47:32;9.40;99.90
21216;DHT22;10765;50.954;5.322;2024-02-21T00:49:59;9.30;99.90
21216;DHT22;10765;50.954;5.322;2024-02-21T00:52:27;9.30;99.90
21216;DHT22;10765;50.954;5.322;2024-02-21T00:54:54;9.30;99.90
21216;DHT22;10765;50.954;5.322;2024-02-21T00:57:21;9.30;99.90
21216;DHT22;10765;50.954;5.322;2024-02-21T00:59:49;9.30;1.00
21216;DHT22;10765;50.954;5.322;2024-02-21T01:02:17;9.30;99.90
21216;DHT22;10765;50.954;5.322;2024-02-21T01:04:46;9.30;99.90
21216;DHT22;10765;50.954;5.322;2024-02-21T01:07:12;9.30;1.00
21216;DHT22;10765;50.954;5.322;2024-02-21T01:09:39;9.30;1.00
21216;DHT22;10765;50.954;5.322;2024-02-21T01:12:06;9.20;1.00
21216;DHT22;10765;50.954;5.322;2024-02-21T01:14:33;9.20;1.00
21216;DHT22;10765;50.954;5.322;2024-02-21T01:17:00;9.30;1.00
21216;DHT22;10765;50.954;5.322;2024-02-21T01:19:27;9.30;1.00
21216;DHT22;10765;50.954;5.322;2024-02-21T01:21:56;9.40;1.00
21216;DHT22;10765;50.954;5.322;2024-02-21T01:24:22;9.40;99.90
21216;DHT22;10765;50.954;5.322;2024-02-21T01:26:49;9.30;99.90
21216;DHT22;10765;50.954;5.322;2024-02-21T01:29:16;9.40;99.90
21216;DHT22;10765;50.954;5.322;2024-02-21T01:31:43;9.30;99.90
21216;DHT22;10765;50.954;5.322;2024-02-21T01:34:10;9.30;99.90
21216;DHT22;10765;50.954;5.322;2024-02-21T01:36:37;9.30;99.90
21216;DHT22;10765;50.954;5.322;2024-02-21T01:39:05;9.30;99.90
21216;DHT22;10765;50.954;5.322;2024-02-21T01:41:32;9.30;99.90
21216;DHT22;10765;50.954;5.322;2024-02-21T01:43:59;9.30;99.90
21216;DHT22;10765;50.954;5.322;2024-02-21T01:46:26;9.30;99.90
21216;DHT22;10765;50.954;5.322;2024-02-21T01:48:54;9.30;99.90
21216;DHT22;10765;50.954;5.322;2024-02-21T01:51:21;9.30;99.90
21216;DHT22;10765;50.954;5.322;2024-02-21T01:53:51;9.30;99.90
21216;DHT22;10765;50.954;5.322;2024-02-21T01:56:19;9.20;99.90
21216;DHT22;10765;50.954;5.322;2024-02-21T01:58:48;9.20;99.90
21216;DHT22;10765;50.954;5.322;2024-02-21T02:01:16;9.20;99.90
21216;DHT22;10765;50.954;5.322;2024-02-21T02:03:45;9.30;99.90
21216;DHT22;10765;50.954;5.322;2024-02-21T02:06:13;9.30;99.90
21216;DHT22;10765;50.954;5.322;2024-02-21T02:08:40;9.20;99.90
21216;DHT22;10765;50.954;5.322;2024-02-21T02:11:07;9.20;99.90
21216;DHT22;10765;50.954;5.322;2024-02-21T02:13:35;9.20;99.90
21216;DHT22;10765;50.954;5.322;2024-02-21T02:16:03;9.20;99.90
21216;DHT22;10765;50.954;5.322;2024-02-21T02:18:30;9.20;99.90
21216;DHT22;10765;50.954;5.322;2024-02-21T02:20:57;9.20;99.90
21216;DHT22;10765;50.954;5.322;2024-02-21T02:23:26;9.20;99.90
21216;DHT22;10765;50.954;5.322;2024-02-21T02:25:53;9.20;99.90
21216;DHT22;10765;50.954;5.322;2024-02-21T02:28:20;9.20;99.90
21216;DHT22;10765;50.954;5.322;2024-02-21T02:30:48;9.20;99.90
21216;DHT22;10765;50.954;5.322;2024-02-21T02:33:15;9.20;99.90
21216;DHT22;10765;50.954;5.322;2024-02-21T02:35:43;9.20;99.90
21216;DHT22;10765;50.954;5.322;2024-02-21T02:38:10;9.20;99.90
21216;DHT22;10765;50.954;5.322;2024-02-21T02:40:39;9.20;99.90
21216;DHT22;10765;50.954;5.322;2024-02-21T02:43:06;9.20;99.90
21216;DHT22;10765;50.954;5.322;2024-02-21T02:45:33;9.30;99.90
21216;DHT22;10765;50.954;5.322;2024-02-21T02:48:00;9.20;99.90
21216;DHT22;10765;50.954;5.322;2024-02-21T02:50:27;9.20;99.90
21216;DHT22;10765;50.954;5.322;2024-02-21T02:52:54;9.30;99.90
21216;DHT22;10765;50.954;5.322;2024-02-21T02:55:21;9.20;99.90
21216;DHT22;10765;50.954;5.322;2024-02-21T02:57:49;9.30;99.90
21216;DHT22;10765;50.954;5.322;2024-02-21T03:00:16;9.30;99.90
21216;DHT22;10765;50.954;5.322;2024-02-21T03:02:44;9.20;99.90
21216;DHT22;10765;50.954;5.322;2024-02-21T03:05:13;9.20;99.90
21216;DHT22;10765;50.954;5.322;2024-02-21T03:07:40;9.20;99.90
21216;DHT22;10765;50.954;5.322;2024-02-21T03:10:08;9.30;99.90
21216;DHT22;10765;50.954;5.322;2024-02-21T03:12:35;9.30;99.90
21216;DHT22;10765;50.954;5.322;2024-02-21T03:15:04;9.30;99.90
21216;DHT22;10765;50.954;5.322;2024-02-21T03:17:32;9.30;99.90
21216;DHT22;10765;50.954;5.322;2024-02-21T03:20:00;9.30;99.90
21216;DHT22;10765;50.954;5.322;2024-02-21T03:22:30;9.30;99.90
21216;DHT22;10765;50.954;5.322;2024-02-21T03:24:57;9.20;99.90
21216;DHT22;10765;50.954;5.322;2024-02-21T03:27:24;9.10;99.90
21216;DHT22;10765;50.954;5.322;2024-02-21T03:29:51;9.10;99.90
21216;DHT22;10765;50.954;5.322;2024-02-21T03:32:19;9.10;99.90
21216;DHT22;10765;50.954;5.322;2024-02-21T03:34:46;9.20;99.90
21216;DHT22;10765;50.954;5.322;2024-02-21T03:37:13;9.20;99.90
21216;DHT22;10765;50.954;5.322;2024-02-21T03:39:40;9.30;99.90
21216;DHT22;10765;50.954;5.322;2024-02-21T03:42:07;9.20;99.90
21216;DHT22;10765;50.954;5.322;2024-02-21T03:44:34;9.30;99.90
21216;DHT22;10765;50.954;5.322;2024-02-21T03:47:01;9.30;99.90
21216;DHT22;10765;50.954;5.322;2024-02-21T03:49:29;9.40;99.90
21216;DHT22;10765;50.954;5.322;2024-02-21T03:51:56;9.40;99.90
21216;DHT22;10765;50.954;5.322;2024-02-21T03:54:23;9.30;99.90
21216;DHT22;10765;50.954;5.322;2024-02-21T03:56:50;9.20;99.90
21216;DHT22;10765;50.954;5.322;2024-02-21T03:59:17;9.10;99.90
21216;DHT22;10765;50.954;5.322;2024-02-21T04:01:44;9.10;99.90
21216;DHT22;10765;50.954;5.322;2024-02-21T04:04:11;9.10;99.90
21216;DHT22;10765;50.954;5.322;2024-02-21T04:06:47;9.10;99.90
21216;DHT22;10765;50.954;5.322;2024-02-21T04:09:14;9.00;99.90
21216;DHT22;10765;50.954;5.322;2024-02-21T04:11:41;9.00;99.90
21216;DHT22;10765;50.954;5.322;2024-02-21T04:14:07;8.90;99.90
21216;DHT22;10765;50.954;5.322;2024-02-21T04:16:34;8.90;99.90
21216;DHT22;10765;50.954;5.322;2024-02-21T04:19:02;8.90;99.90
21216;DHT22;10765;50.954;5.322;2024-02-21T04:21:28;8.90;99.90
21216;DHT22;10765;50.954;5.322;2024-02-21T04:23:57;8.80;99.90
21216;DHT22;10765;50.954;5.322;2024-02-21T04:26:24;8.90;99.90
21216;DHT22;10765;50.954;5.322;2024-02-21T04:28:51;8.90;99.90
21216;DHT22;10765;50.954;5.322;2024-02-21T04:31:18;8.90;99.90
21216;DHT22;10765;50.954;5.322;2024-02-21T04:33:44;9.00;1.00
21216;DHT22;10765;50.954;5.322;2024-02-21T04:36:11;9.00;99.90
21216;DHT22;10765;50.954;5.322;2024-02-21T04:38:38;9.00;99.90
21216;DHT22;10765;50.954;5.322;2024-02-21T04:41:07;9.10;99.90
21216;DHT22;10765;50.954;5.322;2024-02-21T04:43:34;9.00;99.90
21216;DHT22;10765;50.954;5.322;2024-02-21T04:46:01;9.10;99.90
21216;DHT22;10765;50.954;5.322;2024-02-21T04:48:28;9.10;99.90
21216;DHT22;10765;50.954;5.322;2024-02-21T04:50:55;9.10;99.90
21216;DHT22;10765;50.954;5.322;2024-02-21T04:53:22;9.10;99.90
21216;DHT22;10765;50.954;5.322;2024-02-21T04:55:49;9.00;99.90
21216;DHT22;10765;50.954;5.322;2024-02-21T04:58:17;8.90;99.90
21216;DHT22;10765;50.954;5.322;2024-02-21T05:00:44;8.90;99.90
21216;DHT22;10765;50.954;5.322;2024-02-21T05:03:11;8.90;99.90
21216;DHT22;10765;50.954;5.322;2024-02-21T05:05:38;8.90;99.90
21216;DHT22;10765;50.954;5.322;2024-02-21T05:08:05;8.90;99.90
21216;DHT22;10765;50.954;5.322;2024-02-21T05:10:32;8.90;99.90
21216;DHT22;10765;50.954;5.322;2024-02-21T05:12:59;8.90;99.90
21216;DHT22;10765;50.954;5.322;2024-02-21T05:15:27;8.90;99.90
21216;DHT22;10765;50.954;5.322;2024-02-21T05:17:54;8.90;99.90
21216;DHT22;10765;50.954;5.322;2024-02-21T05:20:21;8.90;99.90
21216;DHT22;10765;50.954;5.322;2024-02-21T05:22:48;8.90;99.90
21216;DHT22;10765;50.954;5.322;2024-02-21T05:25:15;9.00;99.90
21216;DHT22;10765;50.954;5.322;2024-02-21T05:27:42;9.00;99.90
21216;DHT22;10765;50.954;5.322;2024-02-21T05:30:10;8.90;99.90
21216;DHT22;10765;50.954;5.322;2024-02-21T05:32:38;8.90;99.90
21216;DHT22;10765;50.954;5.322;2024-02-21T05:35:06;9.00;99.90
21216;DHT22;10765;50.954;5.322;2024-02-21T05:37:33;9.00;99.90
21216;DHT22;10765;50.954;5.322;2024-02-21T05:40:00;8.90;99.90
21216;DHT22;10765;50.954;5.322;2024-02-21T05:42:26;8.90;99.90
21216;DHT22;10765;50.954;5.322;2024-02-21T05:44:53;8.90;99.90
21216;DHT22;10765;50.954;5.322;2024-02-21T05:47:20;8.90;99.90
21216;DHT22;10765;50.954;5.322;2024-02-21T05:49:48;8.90;99.90
21216;DHT22;10765;50.954;5.322;2024-02-21T05:52:19;8.90;99.90
21216;DHT22;10765;50.954;5.322;2024-02-21T05:54:46;8.90;99.90
21216;DHT22;10765;50.954;5.322;2024-02-21T05:57:13;8.90;1.00
21216;DHT22;10765;50.954;5.322;2024-02-21T05:59:40;8.90;1.00
21216;DHT22;10765;50.954;5.322;2024-02-21T06:02:07;8.90;1.00
21216;DHT22;10765;50.954;5.322;2024-02-21T06:04:34;8.80;1.00
21216;DHT22;10765;50.954;5.322;2024-02-21T06:07:03;8.80;1.00
21216;DHT22;10765;50.954;5.322;2024-02-21T06:09:30;8.80;1.00
21216;DHT22;10765;50.954;5.322;2024-02-21T06:11:57;8.90;1.00
21216;DHT22;10765;50.954;5.322;2024-02-21T06:14:24;8.80;1.00
21216;DHT22;10765;50.954;5.322;2024-02-21T06:16:51;8.80;1.00
21216;DHT22;10765;50.954;5.322;2024-02-21T06:19:18;8.80;1.00
21216;DHT22;10765;50.954;5.322;2024-02-21T06:21:44;8.70;1.00
21216;DHT22;10765;50.954;5.322;2024-02-21T06:24:13;8.70;1.00
21216;DHT22;10765;50.954;5.322;2024-02-21T06:26:40;8.70;1.00
21216;DHT22;10765;50.954;5.322;2024-02-21T06:29:07;8.70;1.00
21216;DHT22;10765;50.954;5.322;2024-02-21T06:31:35;8.70;1.00
21216;DHT22;10765;50.954;5.322;2024-02-21T06:34:02;8.70;1.00
21216;DHT22;10765;50.954;5.322;2024-02-21T06:36:30;8.60;1.00
21216;DHT22;10765;50.954;5.322;2024-02-21T06:38:57;8.70;1.00
21216;DHT22;10765;50.954;5.322;2024-02-21T06:41:25;8.70;1.00
21216;DHT22;10765;50.954;5.322;2024-02-21T06:43:52;8.70;1.00
21216;DHT22;10765;50.954;5.322;2024-02-21T06:46:25;8.60;1.00
21216;DHT22;10765;50.954;5.322;2024-02-21T06:48:52;8.60;1.00
21216;DHT22;10765;50.954;5.322;2024-02-21T06:51:19;8.50;1.00
21216;DHT22;10765;50.954;5.322;2024-02-21T06:53:46;8.50;99.90
21216;DHT22;10765;50.954;5.322;2024-02-21T06:56:13;8.50;99.90
21216;DHT22;10765;50.954;5.322;2024-02-21T06:58:41;8.50;99.90
21216;DHT22;10765;50.954;5.322;2024-02-21T07:01:08;8.60;99.90
21216;DHT22;10765;50.954;5.322;2024-02-21T07:03:35;8.50;99.90
21216;DHT22;10765;50.954;5.322;2024-02-21T07:06:03;8.40;1.00
21216;DHT22;10765;50.954;5.322;2024-02-21T07:08:30;8.30;1.00
21216;DHT22;10765;50.954;5.322;2024-02-21T07:10:56;8.30;99.90
21216;DHT22;10765;50.954;5.322;2024-02-21T07:13:23;8.30;1.00
21216;DHT22;10765;50.954;5.322;2024-02-21T07:15:52;8.30;99.90
21216;DHT22;10765;50.954;5.322;2024-02-21T07:18:19;8.30;1.00
21216;DHT22;10765;50.954;5.322;2024-02-21T07:20:45;8.20;8.60
21216;DHT22;10765;50.954;5.322;2024-02-21T07:23:12;8.10;1.00
21216;DHT22;10765;50.954;5.322;2024-02-21T07:25:39;8.10;1.00
21216;DHT22;10765;50.954;5.322;2024-02-21T07:28:06;8.00;1.00
21216;DHT22;10765;50.954;5.322;2024-02-21T07:30:34;8.10;99.90
21216;DHT22;10765;50.954;5.322;2024-02-21T07:33:03;8.20;57.10
21216;DHT22;10765;50.954;5.322;2024-02-21T07:35:30;8.20;1.00
21216;DHT22;10765;50.954;5.322;2024-02-21T07:37:57;8.20;45.00
21216;DHT22;10765;50.954;5.322;2024-02-21T07:40:24;8.20;40.30
21216;DHT22;10765;50.954;5.322;2024-02-21T07:42:50;8.20;1.00
21216;DHT22;10765;50.954;5.322;2024-02-21T07:45:18;8.30;20.30
21216;DHT22;10765;50.954;5.322;2024-02-21T07:47:47;8.30;99.90
21216;DHT22;10765;50.954;5.322;2024-02-21T07:50:16;8.30;1.00
21216;DHT22;10765;50.954;5.322;2024-02-21T07:52:43;8.30;1.00
21216;DHT22;10765;50.954;5.322;2024-02-21T07:55:10;8.40;99.90
21216;DHT22;10765;50.954;5.322;2024-02-21T07:57:37;8.40;1.00
21216;DHT22;10765;50.954;5.322;2024-02-21T08:00:05;8.40;1.00
21216;DHT22;10765;50.954;5.322;2024-02-21T08:02:35;8.50;1.00
21216;DHT22;10765;50.954;5.322;2024-02-21T08:05:03;8.50;99.90
21216;DHT22;10765;50.954;5.322;2024-02-21T08:07:31;8.50;1.00
21216;DHT22;10765;50.954;5.322;2024-02-21T08:09:58;8.60;1.00
21216;DHT22;10765;50.954;5.322;2024-02-21T08:12:25;8.60;99.90
21216;DHT22;10765;50.954;5.322;2024-02-21T08:14:52;8.70;99.90
21216;DHT22;10765;50.954;5.322;2024-02-21T08:17:21;8.70;99.90
21216;DHT22;10765;50.954;5.322;2024-02-21T08:19:47;8.80;94.20
21216;DHT22;10765;50.954;5.322;2024-02-21T08:22:15;8.90;1.00
21216;DHT22;10765;50.954;5.322;2024-02-21T08:24:43;8.90;1.00
21216;DHT22;10765;50.954;5.322;2024-02-21T08:27:11;8.90;1.00
21216;DHT22;10765;50.954;5.322;2024-02-21T08:29:38;9.00;1.00
21216;DHT22;10765;50.954;5.322;2024-02-21T08:32:05;9.10;99.90
21216;DHT22;10765;50.954;5.322;2024-02-21T08:34:32;9.20;99.90
21216;DHT22;10765;50.954;5.322;2024-02-21T08:37:00;9.20;99.90
21216;DHT22;10765;50.954;5.322;2024-02-21T08:39:26;9.30;99.90
21216;DHT22;10765;50.954;5.322;2024-02-21T08:41:57;9.40;99.90
21216;DHT22;10765;50.954;5.322;2024-02-21T08:44:24;9.40;99.90
21216;DHT22;10765;50.954;5.322;2024-02-21T08:46:52;9.30;99.90
21216;DHT22;10765;50.954;5.322;2024-02-21T08:49:18;9.50;99.90
21216;DHT22;10765;50.954;5.322;2024-02-21T08:51:45;9.60;99.90
21216;DHT22;10765;50.954;5.322;2024-02-21T08:54:12;9.60;99.90
21216;DHT22;10765;50.954;5.322;2024-02-21T08:56:39;9.60;99.90
21216;DHT22;10765;50.954;5.322;2024-02-21T08:59:08;9.60;99.90
21216;DHT22;10765;50.954;5.322;2024-02-21T09:01:35;9.60;92.00
21216;DHT22;10765;50.954;5.322;2024-02-21T09:04:02;9.60;85.50
21216;DHT22;10765;50.954;5.322;2024-02-21T09:06:29;9.60;93.90
21216;DHT22;10765;50.954;5.322;2024-02-21T09:08:58;9.70;83.40
21216;DHT22;10765;50.954;5.322;2024-02-21T09:11:25;9.80;59.20
21216;DHT22;10765;50.954;5.322;2024-02-21T09:13:53;9.70;34.90
21216;DHT22;10765;50.954;5.322;2024-02-21T09:16:22;9.80;48.50
21216;DHT22;10765;50.954;5.322;2024-02-21T09:18:49;9.80;43.20
21216;DHT22;10765;50.954;5.322;2024-02-21T09:21:16;9.80;44.70
21216;DHT22;10765;50.954;5.322;2024-02-21T09:23:43;9.80;30.60
21216;DHT22;10765;50.954;5.322;2024-02-21T09:26:10;9.80;19.70
21216;DHT22;10765;50.954;5.322;2024-02-21T09:28:39;10.00;22.60
21216;DHT22;10765;50.954;5.322;2024-02-21T09:31:06;10.00;8.10
21216;DHT22;10765;50.954;5.322;2024-02-21T09:33:34;10.00;1.00
21216;DHT22;10765;50.954;5.322;2024-02-21T09:36:01;9.90;1.00
21216;DHT22;10765;50.954;5.322;2024-02-21T09:38:28;10.00;1.00
21216;DHT22;10765;50.954;5.322;2024-02-21T09:40:59;10.00;1.00
21216;DHT22;10765;50.954;5.322;2024-02-21T09:43:26;10.10;1.00
21216;DHT22;10765;50.954;5.322;2024-02-21T09:45:56;10.20;1.00
21216;DHT22;10765;50.954;5.322;2024-02-21T09:48:39;10.30;1.00
21216;DHT22;10765;50.954;5.322;2024-02-21T09:51:10;10.30;1.00
21216;DHT22;10765;50.954;5.322;2024-02-21T09:53:38;10.30;1.00
21216;DHT22;10765;50.954;5.322;2024-02-21T09:56:08;10.40;1.00
21216;DHT22;10765;50.954;5.322;2024-02-21T09:58:35;10.40;1.00
21216;DHT22;10765;50.954;5.322;2024-02-21T10:01:03;10.50;1.00
21216;DHT22;10765;50.954;5.322;2024-02-21T10:03:32;10.90;1.00
21216;DHT22;10765;50.954;5.322;2024-02-21T10:06:01;11.10;1.00
21216;DHT22;10765;50.954;5.322;2024-02-21T10:08:28;10.90;1.00
21216;DHT22;10765;50.954;5.322;2024-02-21T10:10:54;11.00;1.00
21216;DHT22;10765;50.954;5.322;2024-02-21T10:13:25;11.20;1.00
21216;DHT22;10765;50.954;5.322;2024-02-21T10:16:06;11.40;1.00
21216;DHT22;10765;50.954;5.322;2024-02-21T10:18:34;11.50;1.00
21216;DHT22;10765;50.954;5.322;2024-02-21T10:21:03;11.50;1.00
21216;DHT22;10765;50.954;5.322;2024-02-21T10:23:44;11.50;1.00
21216;DHT22;10765;50.954;5.322;2024-02-21T10:26:11;11.70;1.00
21216;DHT22;10765;50.954;5.322;2024-02-21T10:28:38;11.70;1.00
21216;DHT22;10765;50.954;5.322;2024-02-21T10:31:08;11.70;1.00
21216;DHT22;10765;50.954;5.322;2024-02-21T10:33:35;11.70;1.00
21216;DHT22;10765;50.954;5.322;2024-02-21T10:36:08;11.60;1.00
21216;DHT22;10765;50.954;5.322;2024-02-21T10:38:37;11.50;1.00
21216;DHT22;10765;50.954;5.322;2024-02-21T10:41:05;11.70;1.00
21216;DHT22;10765;50.954;5.322;2024-02-21T10:43:38;12.00;1.00
21216;DHT22;10765;50.954;5.322;2024-02-21T10:46:06;12.20;1.00
21216;DHT22;10765;50.954;5.322;2024-02-21T10:48:44;12.20;1.00
21216;DHT22;10765;50.954;5.322;2024-02-21T10:51:15;12.00;1.00
21216;DHT22;10765;50.954;5.322;2024-02-21T10:53:45;12.20;1.00
21216;DHT22;10765;50.954;5.322;2024-02-21T10:56:26;12.40;1.00
21216;DHT22;10765;50.954;5.322;2024-02-21T10:58:55;12.40;1.00
21216;DHT22;10765;50.954;5.322;2024-02-21T11:01:23;12.40;1.00
21216;DHT22;10765;50.954;5.322;2024-02-21T11:03:54;12.50;1.00
21216;DHT22;10765;50.954;5.322;2024-02-21T11:06:23;12.60;1.00
21216;DHT22;10765;50.954;5.322;2024-02-21T11:09:02;12.40;1.00
21216;DHT22;10765;50.954;5.322;2024-02-21T11:11:30;12.40;1.00
21216;DHT22;10765;50.954;5.322;2024-02-21T11:14:04;12.60;1.00
21216;DHT22;10765;50.954;5.322;2024-02-21T11:16:35;12.70;1.00
21216;DHT22;10765;50.954;5.322;2024-02-21T11:19:07;12.80;1.00
21216;DHT22;10765;50.954;5.322;2024-02-21T11:21:36;13.20;1.00
21216;DHT22;10765;50.954;5.322;2024-02-21T11:24:07;13.60;1.00
21216;DHT22;10765;50.954;5.322;2024-02-21T11:26:37;13.50;1.00
21216;DHT22;10765;50.954;5.322;2024-02-21T11:29:04;13.40;1.00
21216;DHT22;10765;50.954;5.322;2024-02-21T11:31:41;13.50;1.00
21216;DHT22;10765;50.954;5.322;2024-02-21T11:34:09;13.10;1.00
21216;DHT22;10765;50.954;5.322;2024-02-21T11:36:46;13.10;1.00
21216;DHT22;10765;50.954;5.322;2024-02-21T11:39:18;13.20;1.00
21216;DHT22;10765;50.954;5.322;2024-02-21T11:41:46;13.60;1.00
21216;DHT22;10765;50.954;5.322;2024-02-21T11:44:13;13.60;1.00
21216;DHT22;10765;50.954;5.322;2024-02-21T11:46:40;13.40;1.00
21216;DHT22;10765;50.954;5.322;2024-02-21T11:49:07;13.10;1.00
21216;DHT22;10765;50.954;5.322;2024-02-21T11:51:39;13.10;1.00
21216;DHT22;10765;50.954;5.322;2024-02-21T11:54:06;13.40;1.00
21216;DHT22;10765;50.954;5.322;2024-02-21T11:56:34;13.50;1.00
21216;DHT22;10765;50.954;5.322;2024-02-21T11:59:01;13.50;1.00
21216;DHT22;10765;50.954;5.322;2024-02-21T12:01:28;13.70;1.00
21216;DHT22;10765;50.954;5.322;2024-02-21T12:03:56;14.00;1.00
21216;DHT22;10765;50.954;5.322;2024-02-21T12:06:22;14.10;1.00
21216;DHT22;10765;50.954;5.322;2024-02-21T12:08:51;14.20;1.00
21216;DHT22;10765;50.954;5.322;2024-02-21T12:11:22;14.30;1.00
21216;DHT22;10765;50.954;5.322;2024-02-21T12:13:58;14.30;1.00
21216;DHT22;10765;50.954;5.322;2024-02-21T12:16:27;14.10;1.00
21216;DHT22;10765;50.954;5.322;2024-02-21T12:18:55;13.60;1.00
21216;DHT22;10765;50.954;5.322;2024-02-21T12:21:24;13.10;1.00
21216;DHT22;10765;50.954;5.322;2024-02-21T12:23:52;12.90;1.00
21216;DHT22;10765;50.954;5.322;2024-02-21T12:26:19;13.00;1.00
21216;DHT22;10765;50.954;5.322;2024-02-21T12:28:46;13.00;1.00
21216;DHT22;10765;50.954;5.322;2024-02-21T12:31:13;12.90;1.00
21216;DHT22;10765;50.954;5.322;2024-02-21T12:33:41;12.80;1.00
21216;DHT22;10765;50.954;5.322;2024-02-21T12:36:08;12.60;1.00
21216;DHT22;10765;50.954;5.322;2024-02-21T12:38:35;12.50;1.00
21216;DHT22;10765;50.954;5.322;2024-02-21T12:41:04;12.40;1.00
21216;DHT22;10765;50.954;5.322;2024-02-21T12:43:31;12.30;1.00
21216;DHT22;10765;50.954;5.322;2024-02-21T12:45:58;12.20;1.00
21216;DHT22;10765;50.954;5.322;2024-02-21T12:48:25;12.00;1.00
21216;DHT22;10765;50.954;5.322;2024-02-21T12:50:52;12.00;1.00
21216;DHT22;10765;50.954;5.322;2024-02-21T12:53:19;12.30;1.00
21216;DHT22;10765;50.954;5.322;2024-02-21T12:55:48;12.40;1.00
21216;DHT22;10765;50.954;5.322;2024-02-21T12:58:16;12.20;1.00
21216;DHT22;10765;50.954;5.322;2024-02-21T13:00:43;12.00;1.00
21216;DHT22;10765;50.954;5.322;2024-02-21T13:03:11;12.00;1.00
21216;DHT22;10765;50.954;5.322;2024-02-21T13:05:38;12.10;1.00
21216;DHT22;10765;50.954;5.322;2024-02-21T13:08:06;12.00;1.00
21216;DHT22;10765;50.954;5.322;2024-02-21T13:10:32;11.90;1.00
21216;DHT22;10765;50.954;5.322;2024-02-21T13:13:01;12.00;1.00
21216;DHT22;10765;50.954;5.322;2024-02-21T13:15:29;12.10;1.00
21216;DHT22;10765;50.954;5.322;2024-02-21T13:17:56;12.30;1.00
21216;DHT22;10765;50.954;5.322;2024-02-21T13:20:23;12.20;1.00
21216;DHT22;10765;50.954;5.322;2024-02-21T13:22:50;12.20;1.00
21216;DHT22;10765;50.954;5.322;2024-02-21T13:25:17;12.10;1.00
21216;DHT22;10765;50.954;5.322;2024-02-21T13:27:46;12.00;1.00
21216;DHT22;10765;50.954;5.322;2024-02-21T13:30:14;12.00;1.00
21216;DHT22;10765;50.954;5.322;2024-02-21T13:32:42;12.00;1.00
21216;DHT22;10765;50.954;5.322;2024-02-21T13:35:11;12.20;1.00
21216;DHT22;10765;50.954;5.322;2024-02-21T13:37:38;12.20;1.00
21216;DHT22;10765;50.954;5.322;2024-02-21T13:40:06;12.20;1.00
21216;DHT22;10765;50.954;5.322;2024-02-21T13:42:34;12.30;1.00
21216;DHT22;10765;50.954;5.322;2024-02-21T13:45:01;12.30;1.00
21216;DHT22;10765;50.954;5.322;2024-02-21T13:47:28;12.30;1.00
21216;DHT22;10765;50.954;5.322;2024-02-21T13:49:57;12.40;1.00
21216;DHT22;10765;50.954;5.322;2024-02-21T13:52:24;12.40;1.00
21216;DHT22;10765;50.954;5.322;2024-02-21T13:54:52;12.40;1.00
21216;DHT22;10765;50.954;5.322;2024-02-21T13:57:19;12.40;1.00
21216;DHT22;10765;50.954;5.322;2024-02-21T13:59:45;12.30;1.00
21216;DHT22;10765;50.954;5.322;2024-02-21T14:02:12;12.40;1.00
21216;DHT22;10765;50.954;5.322;2024-02-21T14:04:39;12.50;1.00
21216;DHT22;10765;50.954;5.322;2024-02-21T14:07:07;12.40;1.00
21216;DHT22;10765;50.954;5.322;2024-02-21T14:09:34;12.20;1.00
21216;DHT22;10765;50.954;5.322;2024-02-21T14:12:02;12.20;1.00
21216;DHT22;10765;50.954;5.322;2024-02-21T14:14:33;12.10;1.00
21216;DHT22;10765;50.954;5.322;2024-02-21T14:17:00;11.90;1.00
21216;DHT22;10765;50.954;5.322;2024-02-21T14:19:27;11.80;1.00
21216;DHT22;10765;50.954;5.322;2024-02-21T14:21:54;11.70;1.00
21216;DHT22;10765;50.954;5.322;2024-02-21T14:24:23;11.80;1.00
21216;DHT22;10765;50.954;5.322;2024-02-21T14:26:50;11.70;1.00
21216;DHT22;10765;50.954;5.322;2024-02-21T14:29:17;11.60;1.00
21216;DHT22;10765;50.954;5.322;2024-02-21T14:31:44;11.70;1.00
21216;DHT22;10765;50.954;5.322;2024-02-21T14:34:11;11.40;1.00
21216;DHT22;10765;50.954;5.322;2024-02-21T14:36:37;11.20;1.00
21216;DHT22;10765;50.954;5.322;2024-02-21T14:39:07;11.10;1.00
21216;DHT22;10765;50.954;5.322;2024-02-21T14:41:35;11.00;1.00
21216;DHT22;10765;50.954;5.322;2024-02-21T14:44:02;11.00;1.00
21216;DHT22;10765;50.954;5.322;2024-02-21T14:46:29;10.90;1.00
21216;DHT22;10765;50.954;5.322;2024-02-21T14:48:56;10.80;1.00
21216;DHT22;10765;50.954;5.322;2024-02-21T14:51:23;10.60;1.00
21216;DHT22;10765;50.954;5.322;2024-02-21T14:53:50;10.40;1.00
21216;DHT22;10765;50.954;5.322;2024-02-21T14:56:17;10.10;1.00
21216;DHT22;10765;50.954;5.322;2024-02-21T14:58:45;9.90;1.00
21216;DHT22;10765;50.954;5.322;2024-02-21T15:01:13;9.80;22.30
21216;DHT22;10765;50.954;5.322;2024-02-21T15:03:40;9.60;55.30
21216;DHT22;10765;50.954;5.322;2024-02-21T15:06:08;9.60;99.90
21216;DHT22;10765;50.954;5.322;2024-02-21T15:08:35;9.50;99.90
21216;DHT22;10765;50.954;5.322;2024-02-21T15:11:02;9.40;99.90
21216;DHT22;10765;50.954;5.322;2024-02-21T15:13:29;9.30;99.90
21216;DHT22;10765;50.954;5.322;2024-02-21T15:15:58;9.30;99.90
21216;DHT22;10765;50.954;5.322;2024-02-21T15:18:25;9.30;99.90
21216;DHT22;10765;50.954;5.322;2024-02-21T15:20:52;9.30;99.90
21216;DHT22;10765;50.954;5.322;2024-02-21T15:23:19;9.10;99.90
21216;DHT22;10765;50.954;5.322;2024-02-21T15:25:46;9.00;99.90
21216;DHT22;10765;50.954;5.322;2024-02-21T15:28:12;9.00;1.00
21216;DHT22;10765;50.954;5.322;2024-02-21T15:30:39;8.90;1.00
21216;DHT22;10765;50.954;5.322;2024-02-21T15:33:08;8.90;1.00
21216;DHT22;10765;50.954;5.322;2024-02-21T15:35:35;8.90;96.70
21216;DHT22;10765;50.954;5.322;2024-02-21T15:38:01;8.80;46.20
21216;DHT22;10765;50.954;5.322;2024-02-21T15:40:29;8.80;99.90
21216;DHT22;10765;50.954;5.322;2024-02-21T15:42:56;8.80;6.60
21216;DHT22;10765;50.954;5.322;2024-02-21T15:45:23;8.80;99.90
21216;DHT22;10765;50.954;5.322;2024-02-21T15:47:50;8.70;99.90
21216;DHT22;10765;50.954;5.322;2024-02-21T15:50:18;8.60;99.90